sensor_id;sensor_type;location;lat;lon;timestamp;P1;durP1;ratioP1;P2;durP2;ratioP2
18104;SDS011;9179;50.968;3.134;2024-01-10T00:01:45;7.83;;;6.17;;
18104;SDS011;9179;50.968;3.134;2024-01-10T00:04:12;6.47;;;5.53;;
18104;SDS011;9179;50.968;3.134;2024-01-10T00:06:41;7.05;;;5.50;;
18104;SDS011;9179;50.968;3.134;2024-01-10T00:09:09;9.05;;;6.35;;
18104;SDS011;9179;50.968;3.134;2024-01-10T00:11:37;8.02;;;5.97;;
18104;SDS011;9179;50.968;3.134;2024-01-10T00:14:04;7.50;;;5.57;;
18104;SDS011;9179;50.968;3.134;2024-01-10T00:16:32;7.65;;;6.15;;
18104;SDS011;9179;50.968;3.134;2024-01-10T00:18:59;8.82;;;7.40;;
18104;SDS011;9179;50.968;3.134;2024-01-10T00:21:26;8.18;;;6.90;;
18104;SDS011;9179;50.968;3.134;2024-01-10T00:23:53;9.90;;;7.60;;
18104;SDS011;9179;50.968;3.134;2024-01-10T00:26:20;8.73;;;6.55;;
18104;SDS011;9179;50.968;3.134;2024-01-10T00:28:49;6.28;;;5.72;;
18104;SDS011;9179;50.968;3.134;2024-01-10T00:31:16;7.85;;;5.18;;
18104;SDS011;9179;50.968;3.134;2024-01-10T00:33:43;8.00;;;5.80;;
18104;SDS011;9179;50.968;3.134;2024-01-10T00:36:10;6.80;;;6.10;;
18104;SDS011;9179;50.968;3.134;2024-01-10T00:38:37;6.18;;;4.90;;
18104;SDS011;9179;50.968;3.134;2024-01-10T00:41:04;7.10;;;5.87;;
18104;SDS011;9179;50.968;3.134;2024-01-10T00:43:32;7.25;;;6.55;;
18104;SDS011;9179;50.968;3.134;2024-01-10T00:46:00;6.80;;;5.57;;
18104;SDS011;9179;50.968;3.134;2024-01-10T00:48:28;6.45;;;5.80;;
18104;SDS011;9179;50.968;3.134;2024-01-10T00:50:55;6.67;;;6.07;;
18104;SDS011;9179;50.968;3.134;2024-01-10T00:53:22;8.63;;;7.05;;
18104;SDS011;9179;50.968;3.134;2024-01-10T00:55:49;7.30;;;6.22;;
18104;SDS011;9179;50.968;3.134;2024-01-10T00:58:16;7.72;;;5.53;;
18104;SDS011;9179;50.968;3.134;2024-01-10T01:00:43;7.00;;;5.97;;
18104;SDS011;9179;50.968;3.134;2024-01-10T01:03:12;8.60;;;6.75;;
18104;SDS011;9179;50.968;3.134;2024-01-10T01:05:39;10.23;;;6.57;;
18104;SDS011;9179;50.968;3.134;2024-01-10T01:08:06;7.47;;;6.78;;
18104;SDS011;9179;50.968;3.134;2024-01-10T01:10:34;10.20;;;6.63;;
18104;SDS011;9179;50.968;3.134;2024-01-10T01:13:01;7.75;;;6.45;;
18104;SDS011;9179;50.968;3.134;2024-01-10T01:15:28;8.73;;;6.72;;
18104;SDS011;9179;50.968;3.134;2024-01-10T01:17:55;7.72;;;7.00;;
18104;SDS011;9179;50.968;3.134;2024-01-10T01:20:24;6.90;;;6.30;;
18104;SDS011;9179;50.968;3.134;2024-01-10T01:22:51;7.43;;;6.28;;
18104;SDS011;9179;50.968;3.134;2024-01-10T01:25:18;7.50;;;6.53;;
18104;SDS011;9179;50.968;3.134;2024-01-10T01:27:45;9.07;;;7.32;;
18104;SDS011;9179;50.968;3.134;2024-01-10T01:30:12;8.35;;;7.60;;
18104;SDS011;9179;50.968;3.134;2024-01-10T01:32:40;11.77;;;7.93;;
18104;SDS011;9179;50.968;3.134;2024-01-10T01:35:07;11.82;;;7.43;;
18104;SDS011;9179;50.968;3.134;2024-01-10T01:37:36;8.40;;;7.20;;
18104;SDS011;9179;50.968;3.134;2024-01-10T01:40:03;8.13;;;6.32;;
18104;SDS011;9179;50.968;3.134;2024-01-10T01:42:31;8.07;;;7.38;;
18104;SDS011;9179;50.968;3.134;2024-01-10T01:44:58;8.07;;;6.85;;
18104;SDS011;9179;50.968;3.134;2024-01-10T01:47:25;8.02;;;6.28;;
18104;SDS011;9179;50.968;3.134;2024-01-10T01:49:53;6.43;;;5.68;;
18104;SDS011;9179;50.968;3.134;2024-01-10T01:52:20;7.10;;;6.40;;
18104;SDS011;9179;50.968;3.134;2024-01-10T01:54:49;11.43;;;7.82;;
18104;SDS011;9179;50.968;3.134;2024-01-10T01:57:16;6.72;;;6.07;;
18104;SDS011;9179;50.968;3.134;2024-01-10T01:59:43;7.00;;;5.90;;
18104;SDS011;9179;50.968;3.134;2024-01-10T02:02:11;7.97;;;6.35;;
18104;SDS011;9179;50.968;3.134;2024-01-10T02:04:39;7.13;;;6.43;;
18104;SDS011;9179;50.968;3.134;2024-01-10T02:07:07;8.60;;;6.75;;
18104;SDS011;9179;50.968;3.134;2024-01-10T02:09:34;7.37;;;6.30;;
18104;SDS011;9179;50.968;3.134;2024-01-10T02:12:03;8.30;;;6.03;;
18104;SDS011;9179;50.968;3.134;2024-01-10T02:14:31;8.55;;;7.43;;
18104;SDS011;9179;50.968;3.134;2024-01-10T02:16:58;8.18;;;6.97;;
18104;SDS011;9179;50.968;3.134;2024-01-10T02:19:25;7.93;;;7.15;;
18104;SDS011;9179;50.968;3.134;2024-01-10T02:21:54;9.25;;;6.72;;
18104;SDS011;9179;50.968;3.134;2024-01-10T02:24:22;12.35;;;7.78;;
18104;SDS011;9179;50.968;3.134;2024-01-10T02:26:50;8.77;;;7.23;;
18104;SDS011;9179;50.968;3.134;2024-01-10T02:29:17;8.82;;;7.20;;
18104;SDS011;9179;50.968;3.134;2024-01-10T02:31:44;9.40;;;7.25;;
18104;SDS011;9179;50.968;3.134;2024-01-10T02:34:11;8.20;;;7.20;;
18104;SDS011;9179;50.968;3.134;2024-01-10T02:36:38;8.27;;;6.88;;
18104;SDS011;9179;50.968;3.134;2024-01-10T02:39:05;9.43;;;6.97;;
18104;SDS011;9179;50.968;3.134;2024-01-10T02:41:32;8.85;;;6.32;;
18104;SDS011;9179;50.968;3.134;2024-01-10T02:44:00;9.85;;;7.72;;
18104;SDS011;9179;50.968;3.134;2024-01-10T02:46:27;8.35;;;7.47;;
18104;SDS011;9179;50.968;3.134;2024-01-10T02:48:54;8.07;;;6.00;;
18104;SDS011;9179;50.968;3.134;2024-01-10T02:51:21;7.90;;;6.90;;
18104;SDS011;9179;50.968;3.134;2024-01-10T02:53:48;9.38;;;6.85;;
18104;SDS011;9179;50.968;3.134;2024-01-10T02:56:15;8.52;;;7.03;;
18104;SDS011;9179;50.968;3.134;2024-01-10T02:58:42;10.10;;;7.70;;
18104;SDS011;9179;50.968;3.134;2024-01-10T03:01:10;8.55;;;6.28;;
18104;SDS011;9179;50.968;3.134;2024-01-10T03:03:39;8.10;;;7.22;;
18104;SDS011;9179;50.968;3.134;2024-01-10T03:06:06;6.65;;;5.57;;
18104;SDS011;9179;50.968;3.134;2024-01-10T03:08:33;7.93;;;7.10;;
18104;SDS011;9179;50.968;3.134;2024-01-10T03:11:00;7.20;;;5.50;;
18104;SDS011;9179;50.968;3.134;2024-01-10T03:13:27;8.05;;;6.07;;
18104;SDS011;9179;50.968;3.134;2024-01-10T03:15:54;6.72;;;6.03;;
18104;SDS011;9179;50.968;3.134;2024-01-10T03:18:23;5.90;;;5.27;;
18104;SDS011;9179;50.968;3.134;2024-01-10T03:20:50;8.60;;;5.93;;
18104;SDS011;9179;50.968;3.134;2024-01-10T03:23:17;8.03;;;6.00;;
18104;SDS011;9179;50.968;3.134;2024-01-10T03:25:44;7.33;;;5.93;;
18104;SDS011;9179;50.968;3.134;2024-01-10T03:28:14;8.63;;;6.33;;
18104;SDS011;9179;50.968;3.134;2024-01-10T03:30:42;9.65;;;6.20;;
18104;SDS011;9179;50.968;3.134;2024-01-10T03:33:09;6.55;;;5.85;;
18104;SDS011;9179;50.968;3.134;2024-01-10T03:35:37;8.90;;;6.10;;
18104;SDS011;9179;50.968;3.134;2024-01-10T03:38:04;7.53;;;6.43;;
18104;SDS011;9179;50.968;3.134;2024-01-10T03:40:31;7.80;;;6.97;;
18104;SDS011;9179;50.968;3.134;2024-01-10T03:42:58;6.93;;;6.03;;
18104;SDS011;9179;50.968;3.134;2024-01-10T03:45:25;9.90;;;5.90;;
18104;SDS011;9179;50.968;3.134;2024-01-10T03:47:53;9.30;;;6.77;;
18104;SDS011;9179;50.968;3.134;2024-01-10T03:50:20;9.15;;;7.07;;
18104;SDS011;9179;50.968;3.134;2024-01-10T03:52:48;7.80;;;6.53;;
18104;SDS011;9179;50.968;3.134;2024-01-10T03:55:15;9.97;;;6.80;;
18104;SDS011;9179;50.968;3.134;2024-01-10T03:57:42;8.63;;;7.57;;
18104;SDS011;9179;50.968;3.134;2024-01-10T04:00:10;9.18;;;7.57;;
18104;SDS011;9179;50.968;3.134;2024-01-10T04:02:37;11.07;;;7.67;;
18104;SDS011;9179;50.968;3.134;2024-01-10T04:05:06;11.50;;;6.90;;
18104;SDS011;9179;50.968;3.134;2024-01-10T04:07:34;10.30;;;6.43;;
18104;SDS011;9179;50.968;3.134;2024-01-10T04:10:04;9.13;;;7.37;;
18104;SDS011;9179;50.968;3.134;2024-01-10T04:12:35;6.95;;;6.25;;
18104;SDS011;9179;50.968;3.134;2024-01-10T04:15:02;8.98;;;6.75;;
18104;SDS011;9179;50.968;3.134;2024-01-10T04:17:30;10.07;;;7.37;;
18104;SDS011;9179;50.968;3.134;2024-01-10T04:19:57;7.10;;;6.20;;
18104;SDS011;9179;50.968;3.134;2024-01-10T04:22:24;8.53;;;6.67;;
18104;SDS011;9179;50.968;3.134;2024-01-10T04:24:51;7.03;;;5.87;;
18104;SDS011;9179;50.968;3.134;2024-01-10T04:27:20;5.50;;;5.07;;
18104;SDS011;9179;50.968;3.134;2024-01-10T04:29:46;9.33;;;5.93;;
18104;SDS011;9179;50.968;3.134;2024-01-10T04:32:13;8.13;;;6.40;;
18104;SDS011;9179;50.968;3.134;2024-01-10T04:34:40;7.43;;;6.07;;
18104;SDS011;9179;50.968;3.134;2024-01-10T04:37:07;7.63;;;5.82;;
18104;SDS011;9179;50.968;3.134;2024-01-10T04:39:34;5.85;;;5.32;;
18104;SDS011;9179;50.968;3.134;2024-01-10T04:42:03;8.47;;;5.83;;
18104;SDS011;9179;50.968;3.134;2024-01-10T04:44:32;11.93;;;8.27;;
18104;SDS011;9179;50.968;3.134;2024-01-10T04:46:59;13.00;;;7.10;;
18104;SDS011;9179;50.968;3.134;2024-01-10T04:49:25;10.60;;;7.93;;
18104;SDS011;9179;50.968;3.134;2024-01-10T04:51:52;15.87;;;8.57;;
18104;SDS011;9179;50.968;3.134;2024-01-10T04:54:20;10.50;;;7.60;;
18104;SDS011;9179;50.968;3.134;2024-01-10T04:56:47;9.87;;;7.10;;
18104;SDS011;9179;50.968;3.134;2024-01-10T04:59:13;9.97;;;7.10;;
18104;SDS011;9179;50.968;3.134;2024-01-10T05:01:42;10.13;;;6.20;;
18104;SDS011;9179;50.968;3.134;2024-01-10T05:04:09;9.93;;;7.03;;
18104;SDS011;9179;50.968;3.134;2024-01-10T05:06:36;10.40;;;6.20;;
18104;SDS011;9179;50.968;3.134;2024-01-10T05:09:03;5.82;;;5.30;;
18104;SDS011;9179;50.968;3.134;2024-01-10T05:11:29;6.90;;;5.45;;
18104;SDS011;9179;50.968;3.134;2024-01-10T05:13:57;9.05;;;6.93;;
18104;SDS011;9179;50.968;3.134;2024-01-10T05:16:24;7.13;;;6.47;;
18104;SDS011;9179;50.968;3.134;2024-01-10T05:18:52;7.35;;;6.13;;
18104;SDS011;9179;50.968;3.134;2024-01-10T05:21:19;10.15;;;6.90;;
18104;SDS011;9179;50.968;3.134;2024-01-10T05:23:46;6.95;;;6.13;;
18104;SDS011;9179;50.968;3.134;2024-01-10T05:26:14;6.50;;;5.72;;
18104;SDS011;9179;50.968;3.134;2024-01-10T05:28:41;10.02;;;6.88;;
18104;SDS011;9179;50.968;3.134;2024-01-10T05:31:07;9.50;;;5.90;;
18104;SDS011;9179;50.968;3.134;2024-01-10T05:33:35;8.90;;;6.80;;
18104;SDS011;9179;50.968;3.134;2024-01-10T05:36:03;9.43;;;5.93;;
18104;SDS011;9179;50.968;3.134;2024-01-10T05:38:30;6.95;;;6.05;;
18104;SDS011;9179;50.968;3.134;2024-01-10T05:40:57;9.73;;;6.00;;
18104;SDS011;9179;50.968;3.134;2024-01-10T05:43:24;6.85;;;6.35;;
18104;SDS011;9179;50.968;3.134;2024-01-10T05:45:51;5.97;;;5.30;;
18104;SDS011;9179;50.968;3.134;2024-01-10T05:48:18;6.67;;;5.30;;
18104;SDS011;9179;50.968;3.134;2024-01-10T05:50:45;7.43;;;5.95;;
18104;SDS011;9179;50.968;3.134;2024-01-10T05:53:13;6.85;;;6.25;;
18104;SDS011;9179;50.968;3.134;2024-01-10T05:55:42;6.43;;;5.82;;
18104;SDS011;9179;50.968;3.134;2024-01-10T05:58:09;7.65;;;6.07;;
18104;SDS011;9179;50.968;3.134;2024-01-10T06:00:36;6.63;;;6.03;;
18104;SDS011;9179;50.968;3.134;2024-01-10T06:03:03;6.00;;;5.40;;
18104;SDS011;9179;50.968;3.134;2024-01-10T06:05:30;7.68;;;6.22;;
18104;SDS011;9179;50.968;3.134;2024-01-10T06:07:57;6.83;;;6.00;;
18104;SDS011;9179;50.968;3.134;2024-01-10T06:10:26;8.27;;;6.05;;
18104;SDS011;9179;50.968;3.134;2024-01-10T06:12:54;7.13;;;6.43;;
18104;SDS011;9179;50.968;3.134;2024-01-10T06:15:21;6.83;;;6.23;;
18104;SDS011;9179;50.968;3.134;2024-01-10T06:17:48;8.68;;;7.70;;
18104;SDS011;9179;50.968;3.134;2024-01-10T06:20:16;8.00;;;7.22;;
18104;SDS011;9179;50.968;3.134;2024-01-10T06:22:43;11.25;;;7.30;;
18104;SDS011;9179;50.968;3.134;2024-01-10T06:25:11;13.52;;;8.40;;
18104;SDS011;9179;50.968;3.134;2024-01-10T06:27:40;10.98;;;7.93;;
18104;SDS011;9179;50.968;3.134;2024-01-10T06:30:07;11.52;;;8.07;;
18104;SDS011;9179;50.968;3.134;2024-01-10T06:32:34;10.63;;;7.45;;
18104;SDS011;9179;50.968;3.134;2024-01-10T06:35:01;10.20;;;8.50;;
18104;SDS011;9179;50.968;3.134;2024-01-10T06:37:29;8.15;;;7.03;;
18104;SDS011;9179;50.968;3.134;2024-01-10T06:39:56;8.65;;;7.72;;
18104;SDS011;9179;50.968;3.134;2024-01-10T06:42:23;9.73;;;7.90;;
18104;SDS011;9179;50.968;3.134;2024-01-10T06:44:52;14.80;;;8.82;;
18104;SDS011;9179;50.968;3.134;2024-01-10T06:47:19;9.93;;;7.80;;
18104;SDS011;9179;50.968;3.134;2024-01-10T06:49:47;10.50;;;8.23;;
18104;SDS011;9179;50.968;3.134;2024-01-10T06:52:14;11.52;;;8.50;;
18104;SDS011;9179;50.968;3.134;2024-01-10T06:54:41;9.93;;;7.93;;
18104;SDS011;9179;50.968;3.134;2024-01-10T06:57:08;10.40;;;7.90;;
18104;SDS011;9179;50.968;3.134;2024-01-10T06:59:35;16.75;;;11.55;;
18104;SDS011;9179;50.968;3.134;2024-01-10T07:02:03;12.35;;;10.38;;
18104;SDS011;9179;50.968;3.134;2024-01-10T07:04:30;9.73;;;8.10;;
18104;SDS011;9179;50.968;3.134;2024-01-10T07:06:57;12.00;;;7.80;;
18104;SDS011;9179;50.968;3.134;2024-01-10T07:09:25;12.27;;;8.47;;
18104;SDS011;9179;50.968;3.134;2024-01-10T07:11:51;8.67;;;7.83;;
18104;SDS011;9179;50.968;3.134;2024-01-10T07:14:18;11.63;;;8.53;;
18104;SDS011;9179;50.968;3.134;2024-01-10T07:16:45;8.97;;;8.13;;
18104;SDS011;9179;50.968;3.134;2024-01-10T07:19:14;10.73;;;9.63;;
18104;SDS011;9179;50.968;3.134;2024-01-10T07:21:41;13.48;;;8.98;;
18104;SDS011;9179;50.968;3.134;2024-01-10T07:24:08;13.07;;;8.73;;
18104;SDS011;9179;50.968;3.134;2024-01-10T07:26:37;12.48;;;7.65;;
18104;SDS011;9179;50.968;3.134;2024-01-10T07:29:04;10.20;;;7.95;;
18104;SDS011;9179;50.968;3.134;2024-01-10T07:31:33;12.50;;;8.80;;
18104;SDS011;9179;50.968;3.134;2024-01-10T07:34:00;8.57;;;7.80;;
18104;SDS011;9179;50.968;3.134;2024-01-10T07:36:31;9.25;;;7.85;;
18104;SDS011;9179;50.968;3.134;2024-01-10T07:38:59;10.38;;;8.65;;
18104;SDS011;9179;50.968;3.134;2024-01-10T07:41:26;9.30;;;7.55;;
18104;SDS011;9179;50.968;3.134;2024-01-10T07:43:53;10.63;;;9.23;;
18104;SDS011;9179;50.968;3.134;2024-01-10T07:46:20;12.02;;;8.30;;
18104;SDS011;9179;50.968;3.134;2024-01-10T07:48:47;10.55;;;8.90;;
18104;SDS011;9179;50.968;3.134;2024-01-10T07:51:14;10.82;;;9.68;;
18104;SDS011;9179;50.968;3.134;2024-01-10T07:53:43;22.42;;;7.45;;
18104;SDS011;9179;50.968;3.134;2024-01-10T07:56:10;12.07;;;6.87;;
18104;SDS011;9179;50.968;3.134;2024-01-10T07:58:38;8.98;;;8.07;;
18104;SDS011;9179;50.968;3.134;2024-01-10T08:01:04;8.95;;;6.30;;
18104;SDS011;9179;50.968;3.134;2024-01-10T08:03:31;8.82;;;7.13;;
18104;SDS011;9179;50.968;3.134;2024-01-10T08:05:59;8.27;;;6.50;;
18104;SDS011;9179;50.968;3.134;2024-01-10T08:08:26;10.03;;;7.73;;
18104;SDS011;9179;50.968;3.134;2024-01-10T08:10:55;8.20;;;7.40;;
18104;SDS011;9179;50.968;3.134;2024-01-10T08:13:22;7.47;;;6.77;;
18104;SDS011;9179;50.968;3.134;2024-01-10T08:15:49;9.18;;;7.88;;
18104;SDS011;9179;50.968;3.134;2024-01-10T08:18:17;9.40;;;7.77;;
18104;SDS011;9179;50.968;3.134;2024-01-10T08:20:44;9.73;;;8.73;;
18104;SDS011;9179;50.968;3.134;2024-01-10T08:23:11;10.25;;;7.63;;
18104;SDS011;9179;50.968;3.134;2024-01-10T08:25:38;8.25;;;7.15;;
18104;SDS011;9179;50.968;3.134;2024-01-10T08:28:07;7.55;;;6.63;;
18104;SDS011;9179;50.968;3.134;2024-01-10T08:30:35;8.45;;;7.32;;
18104;SDS011;9179;50.968;3.134;2024-01-10T08:33:02;9.23;;;7.63;;
18104;SDS011;9179;50.968;3.134;2024-01-10T08:35:30;8.80;;;7.38;;
18104;SDS011;9179;50.968;3.134;2024-01-10T08:37:57;8.50;;;7.53;;
18104;SDS011;9179;50.968;3.134;2024-01-10T08:40:23;8.07;;;6.63;;
18104;SDS011;9179;50.968;3.134;2024-01-10T08:42:51;7.43;;;6.70;;
18104;SDS011;9179;50.968;3.134;2024-01-10T08:45:19;7.47;;;6.57;;
18104;SDS011;9179;50.968;3.134;2024-01-10T08:47:46;8.18;;;6.47;;
18104;SDS011;9179;50.968;3.134;2024-01-10T08:50:13;7.57;;;6.78;;
18104;SDS011;9179;50.968;3.134;2024-01-10T08:52:40;7.88;;;7.28;;
18104;SDS011;9179;50.968;3.134;2024-01-10T08:55:07;6.68;;;5.70;;
18104;SDS011;9179;50.968;3.134;2024-01-10T08:57:34;8.82;;;8.02;;
18104;SDS011;9179;50.968;3.134;2024-01-10T09:00:01;10.80;;;7.60;;
18104;SDS011;9179;50.968;3.134;2024-01-10T09:02:32;12.98;;;8.60;;
18104;SDS011;9179;50.968;3.134;2024-01-10T09:05:01;13.27;;;7.05;;
18104;SDS011;9179;50.968;3.134;2024-01-10T09:07:29;9.50;;;7.35;;
18104;SDS011;9179;50.968;3.134;2024-01-10T09:09:56;8.48;;;6.95;;
18104;SDS011;9179;50.968;3.134;2024-01-10T09:12:23;10.43;;;7.65;;
18104;SDS011;9179;50.968;3.134;2024-01-10T09:14:50;12.32;;;7.45;;
18104;SDS011;9179;50.968;3.134;2024-01-10T09:17:17;12.27;;;8.23;;
18104;SDS011;9179;50.968;3.134;2024-01-10T09:19:45;9.40;;;7.85;;
18104;SDS011;9179;50.968;3.134;2024-01-10T09:22:12;11.73;;;8.52;;
18104;SDS011;9179;50.968;3.134;2024-01-10T09:24:39;10.25;;;8.40;;
18104;SDS011;9179;50.968;3.134;2024-01-10T09:27:06;11.00;;;8.70;;
18104;SDS011;9179;50.968;3.134;2024-01-10T09:29:34;8.25;;;7.22;;
18104;SDS011;9179;50.968;3.134;2024-01-10T09:32:01;10.40;;;8.07;;
18104;SDS011;9179;50.968;3.134;2024-01-10T09:34:29;7.50;;;6.47;;
18104;SDS011;9179;50.968;3.134;2024-01-10T09:36:58;8.60;;;6.15;;
18104;SDS011;9179;50.968;3.134;2024-01-10T09:39:26;7.78;;;6.97;;
18104;SDS011;9179;50.968;3.134;2024-01-10T09:41:53;7.50;;;6.70;;
18104;SDS011;9179;50.968;3.134;2024-01-10T09:44:21;10.02;;;7.55;;
18104;SDS011;9179;50.968;3.134;2024-01-10T09:46:49;7.25;;;6.30;;
18104;SDS011;9179;50.968;3.134;2024-01-10T09:49:18;9.18;;;6.43;;
18104;SDS011;9179;50.968;3.134;2024-01-10T09:51:47;6.75;;;5.90;;
18104;SDS011;9179;50.968;3.134;2024-01-10T09:54:16;7.32;;;6.63;;
18104;SDS011;9179;50.968;3.134;2024-01-10T09:56:45;6.43;;;5.82;;
18104;SDS011;9179;50.968;3.134;2024-01-10T09:59:13;8.07;;;5.75;;
18104;SDS011;9179;50.968;3.134;2024-01-10T10:01:40;7.72;;;6.75;;
18104;SDS011;9179;50.968;3.134;2024-01-10T10:04:09;8.02;;;6.28;;
18104;SDS011;9179;50.968;3.134;2024-01-10T10:06:38;7.40;;;6.65;;
18104;SDS011;9179;50.968;3.134;2024-01-10T10:09:05;9.18;;;6.82;;
18104;SDS011;9179;50.968;3.134;2024-01-10T10:11:36;7.43;;;6.70;;
18104;SDS011;9179;50.968;3.134;2024-01-10T10:14:16;7.18;;;6.30;;
18104;SDS011;9179;50.968;3.134;2024-01-10T10:16:44;8.73;;;6.65;;
18104;SDS011;9179;50.968;3.134;2024-01-10T10:19:11;8.23;;;6.15;;
18104;SDS011;9179;50.968;3.134;2024-01-10T10:21:39;10.05;;;6.78;;
18104;SDS011;9179;50.968;3.134;2024-01-10T10:24:07;7.25;;;6.32;;
18104;SDS011;9179;50.968;3.134;2024-01-10T10:26:36;8.55;;;6.57;;
18104;SDS011;9179;50.968;3.134;2024-01-10T10:29:03;9.07;;;6.85;;
18104;SDS011;9179;50.968;3.134;2024-01-10T10:31:30;8.63;;;6.90;;
18104;SDS011;9179;50.968;3.134;2024-01-10T10:33:59;13.02;;;8.38;;
18104;SDS011;9179;50.968;3.134;2024-01-10T10:36:27;7.95;;;6.45;;
18104;SDS011;9179;50.968;3.134;2024-01-10T10:38:58;7.88;;;6.78;;
18104;SDS011;9179;50.968;3.134;2024-01-10T10:43:58;8.50;;;6.70;;
18104;SDS011;9179;50.968;3.134;2024-01-10T10:46:26;11.45;;;8.27;;
18104;SDS011;9179;50.968;3.134;2024-01-10T10:48:53;12.10;;;9.15;;
18104;SDS011;9179;50.968;3.134;2024-01-10T10:51:27;11.73;;;8.95;;
18104;SDS011;9179;50.968;3.134;2024-01-10T10:53:58;8.90;;;7.75;;
18104;SDS011;9179;50.968;3.134;2024-01-10T10:56:26;10.95;;;7.07;;
18104;SDS011;9179;50.968;3.134;2024-01-10T10:58:58;9.57;;;8.20;;
18104;SDS011;9179;50.968;3.134;2024-01-10T11:01:27;9.50;;;7.38;;
18104;SDS011;9179;50.968;3.134;2024-01-10T11:03:55;9.60;;;7.00;;
18104;SDS011;9179;50.968;3.134;2024-01-10T11:06:22;9.82;;;7.18;;
18104;SDS011;9179;50.968;3.134;2024-01-10T11:08:55;8.98;;;7.70;;
18104;SDS011;9179;50.968;3.134;2024-01-10T11:11:30;9.45;;;6.95;;
18104;SDS011;9179;50.968;3.134;2024-01-10T11:14:12;8.63;;;7.50;;
18104;SDS011;9179;50.968;3.134;2024-01-10T11:17:02;9.93;;;7.70;;
18104;SDS011;9179;50.968;3.134;2024-01-10T11:19:53;13.70;;;7.97;;
18104;SDS011;9179;50.968;3.134;2024-01-10T11:22:41;7.65;;;6.90;;
18104;SDS011;9179;50.968;3.134;2024-01-10T11:25:18;8.50;;;7.00;;
18104;SDS011;9179;50.968;3.134;2024-01-10T11:27:45;9.05;;;7.40;;
18104;SDS011;9179;50.968;3.134;2024-01-10T11:30:14;6.75;;;5.85;;
18104;SDS011;9179;50.968;3.134;2024-01-10T11:33:00;8.85;;;6.97;;
18104;SDS011;9179;50.968;3.134;2024-01-10T11:35:28;8.88;;;7.45;;
18104;SDS011;9179;50.968;3.134;2024-01-10T11:37:59;6.90;;;6.20;;
18104;SDS011;9179;50.968;3.134;2024-01-10T11:43:14;9.48;;;7.78;;
18104;SDS011;9179;50.968;3.134;2024-01-10T11:45:51;7.90;;;6.05;;
18104;SDS011;9179;50.968;3.134;2024-01-10T11:48:25;13.90;;;8.13;;
18104;SDS011;9179;50.968;3.134;2024-01-10T11:50:53;9.02;;;8.23;;
18104;SDS011;9179;50.968;3.134;2024-01-10T11:53:40;9.60;;;7.07;;
18104;SDS011;9179;50.968;3.134;2024-01-10T11:56:10;7.95;;;7.20;;
18104;SDS011;9179;50.968;3.134;2024-01-10T11:58:52;8.27;;;7.00;;
18104;SDS011;9179;50.968;3.134;2024-01-10T12:01:22;9.85;;;8.13;;
18104;SDS011;9179;50.968;3.134;2024-01-10T12:03:51;9.88;;;7.72;;
18104;SDS011;9179;50.968;3.134;2024-01-10T12:06:19;12.10;;;8.20;;
18104;SDS011;9179;50.968;3.134;2024-01-10T12:08:48;11.05;;;7.60;;
18104;SDS011;9179;50.968;3.134;2024-01-10T12:11:15;12.73;;;7.93;;
18104;SDS011;9179;50.968;3.134;2024-01-10T12:13:42;9.32;;;6.95;;
18104;SDS011;9179;50.968;3.134;2024-01-10T12:16:11;12.05;;;8.15;;
18104;SDS011;9179;50.968;3.134;2024-01-10T12:18:40;10.10;;;8.35;;
18104;SDS011;9179;50.968;3.134;2024-01-10T12:21:08;8.23;;;7.43;;
18104;SDS011;9179;50.968;3.134;2024-01-10T12:23:35;11.85;;;8.75;;
18104;SDS011;9179;50.968;3.134;2024-01-10T12:26:04;10.32;;;7.85;;
18104;SDS011;9179;50.968;3.134;2024-01-10T12:28:33;12.18;;;8.38;;
18104;SDS011;9179;50.968;3.134;2024-01-10T12:31:00;8.73;;;7.10;;
18104;SDS011;9179;50.968;3.134;2024-01-10T12:33:27;9.15;;;8.23;;
18104;SDS011;9179;50.968;3.134;2024-01-10T12:36:06;13.25;;;8.77;;
18104;SDS011;9179;50.968;3.134;2024-01-10T12:38:34;11.63;;;8.93;;
18104;SDS011;9179;50.968;3.134;2024-01-10T12:41:01;9.77;;;7.55;;
18104;SDS011;9179;50.968;3.134;2024-01-10T12:43:29;9.90;;;7.55;;
18104;SDS011;9179;50.968;3.134;2024-01-10T12:46:03;12.70;;;9.18;;
18104;SDS011;9179;50.968;3.134;2024-01-10T12:48:31;9.48;;;7.97;;
18104;SDS011;9179;50.968;3.134;2024-01-10T12:51:01;8.05;;;7.28;;
18104;SDS011;9179;50.968;3.134;2024-01-10T12:53:34;9.63;;;8.65;;
18104;SDS011;9179;50.968;3.134;2024-01-10T12:56:02;12.23;;;8.32;;
18104;SDS011;9179;50.968;3.134;2024-01-10T12:58:29;10.57;;;7.70;;
18104;SDS011;9179;50.968;3.134;2024-01-10T13:00:56;11.48;;;8.88;;
18104;SDS011;9179;50.968;3.134;2024-01-10T13:03:23;9.60;;;7.85;;
18104;SDS011;9179;50.968;3.134;2024-01-10T13:05:51;9.38;;;8.48;;
18104;SDS011;9179;50.968;3.134;2024-01-10T13:08:18;9.23;;;6.40;;
18104;SDS011;9179;50.968;3.134;2024-01-10T13:10:46;10.70;;;7.68;;
18104;SDS011;9179;50.968;3.134;2024-01-10T13:13:14;8.15;;;7.35;;
18104;SDS011;9179;50.968;3.134;2024-01-10T13:15:42;8.52;;;7.53;;
18104;SDS011;9179;50.968;3.134;2024-01-10T13:18:10;11.38;;;8.27;;
18104;SDS011;9179;50.968;3.134;2024-01-10T13:20:38;9.30;;;8.02;;
18104;SDS011;9179;50.968;3.134;2024-01-10T13:23:05;8.10;;;7.35;;
18104;SDS011;9179;50.968;3.134;2024-01-10T13:25:32;9.25;;;6.90;;
18104;SDS011;9179;50.968;3.134;2024-01-10T13:28:01;12.15;;;7.88;;
18104;SDS011;9179;50.968;3.134;2024-01-10T13:30:29;7.53;;;6.47;;
18104;SDS011;9179;50.968;3.134;2024-01-10T13:32:56;9.75;;;7.47;;
18104;SDS011;9179;50.968;3.134;2024-01-10T13:35:23;9.52;;;7.60;;
18104;SDS011;9179;50.968;3.134;2024-01-10T13:37:50;11.05;;;7.97;;
18104;SDS011;9179;50.968;3.134;2024-01-10T13:40:17;10.38;;;8.98;;
18104;SDS011;9179;50.968;3.134;2024-01-10T13:42:48;12.07;;;7.95;;
18104;SDS011;9179;50.968;3.134;2024-01-10T13:45:17;12.73;;;8.30;;
18104;SDS011;9179;50.968;3.134;2024-01-10T13:47:45;14.25;;;8.68;;
18104;SDS011;9179;50.968;3.134;2024-01-10T13:50:14;11.55;;;9.00;;
18104;SDS011;9179;50.968;3.134;2024-01-10T13:52:41;9.82;;;8.82;;
18104;SDS011;9179;50.968;3.134;2024-01-10T13:55:08;11.90;;;8.75;;
18104;SDS011;9179;50.968;3.134;2024-01-10T13:57:35;9.70;;;8.52;;
18104;SDS011;9179;50.968;3.134;2024-01-10T14:00:03;9.52;;;8.23;;
18104;SDS011;9179;50.968;3.134;2024-01-10T14:02:34;10.65;;;9.15;;
18104;SDS011;9179;50.968;3.134;2024-01-10T14:05:01;9.15;;;8.27;;
18104;SDS011;9179;50.968;3.134;2024-01-10T14:07:31;9.75;;;8.75;;
18104;SDS011;9179;50.968;3.134;2024-01-10T14:09:58;10.10;;;8.52;;
18104;SDS011;9179;50.968;3.134;2024-01-10T14:12:26;15.88;;;10.02;;
18104;SDS011;9179;50.968;3.134;2024-01-10T14:14:54;12.18;;;8.93;;
18104;SDS011;9179;50.968;3.134;2024-01-10T14:17:21;11.45;;;8.40;;
18104;SDS011;9179;50.968;3.134;2024-01-10T14:19:50;11.90;;;9.23;;
18104;SDS011;9179;50.968;3.134;2024-01-10T14:22:17;10.38;;;8.63;;
18104;SDS011;9179;50.968;3.134;2024-01-10T14:24:44;14.18;;;9.13;;
18104;SDS011;9179;50.968;3.134;2024-01-10T14:27:12;10.13;;;8.30;;
18104;SDS011;9179;50.968;3.134;2024-01-10T14:29:38;14.20;;;9.77;;
18104;SDS011;9179;50.968;3.134;2024-01-10T14:32:05;9.57;;;8.15;;
18104;SDS011;9179;50.968;3.134;2024-01-10T14:34:32;9.68;;;8.25;;
18104;SDS011;9179;50.968;3.134;2024-01-10T14:37:01;10.00;;;8.43;;
18104;SDS011;9179;50.968;3.134;2024-01-10T14:39:27;10.40;;;8.73;;
18104;SDS011;9179;50.968;3.134;2024-01-10T14:41:56;10.50;;;9.60;;
18104;SDS011;9179;50.968;3.134;2024-01-10T14:44:23;12.77;;;9.77;;
18104;SDS011;9179;50.968;3.134;2024-01-10T14:46:50;13.00;;;8.98;;
18104;SDS011;9179;50.968;3.134;2024-01-10T14:49:16;13.02;;;9.93;;
18104;SDS011;9179;50.968;3.134;2024-01-10T14:51:44;10.63;;;9.43;;
18104;SDS011;9179;50.968;3.134;2024-01-10T14:54:13;12.50;;;8.82;;
18104;SDS011;9179;50.968;3.134;2024-01-10T14:56:40;23.20;;;10.73;;
18104;SDS011;9179;50.968;3.134;2024-01-10T14:59:09;12.93;;;9.30;;
18104;SDS011;9179;50.968;3.134;2024-01-10T15:01:36;8.63;;;7.82;;
18104;SDS011;9179;50.968;3.134;2024-01-10T15:04:03;11.52;;;9.38;;
18104;SDS011;9179;50.968;3.134;2024-01-10T15:06:30;12.80;;;9.88;;
18104;SDS011;9179;50.968;3.134;2024-01-10T15:08:57;12.65;;;9.10;;